Colorado do Oeste, Brazil
Current Conditions -  °F | °C
As of 12:00 AM on Friday 28 Nov 2014 (Local Time) from SBVH Reporting Station
Moderate Fog Moderate Fog  
Wind Chill: 22°   Ceiling: 200
Heat Index: 22°   Visibility: 0.06mi
Dew Point: 22°   Wind: 8mph
Humidity: 100%   Direction: 320°NW
Pressure: 29.94"   Gusts: NA
Location:  13.12°S, 60.54°W
Report Text: SBVH 280400Z 32007KT 0100 FG VV002 22/22 Q1014
Loading
Personal Weather Stations






























Interactive Weather Map New forecast layout! Learn more

10-Day Weather Forecast

Advertisements
Track Severe Weather on mobile